Time;durP1;ratioP1;P1;durP2;ratioP2;P2;SDS_P1;SDS_P2;PMS_P1;PMS_P2;Temp;Humidity;BMP_temperature;BMP_pressure;BME280_temperature;BME280_humidity;BME280_pressure;Samples;Min_cycle;Max_cycle;Signal;HPM_P1;HPM_P2
2021/05/02 00:00:39;;;;;;;26.00;8.57;;;;;;;31.87;56.81;101113.97;5046370;28;68888;-32
2021/05/02 00:03:10;;;;;;;28.92;10.25;;;;;;;31.91;56.66;101123.38;5041395;28;66116;-32
2021/05/02 00:05:40;;;;;;;41.25;12.15;;;;;;;31.91;57.42;101128.78;5035482;28;69371;-32
2021/05/02 00:08:10;;;;;;;38.40;20.67;;;;;;;31.92;57.39;101124.19;5045984;28;65353;-31
2021/05/02 00:10:40;;;;;;;41.30;19.10;;;;;;;31.93;57.67;101132.13;5051645;28;69595;-32
2021/05/02 00:13:10;;;;;;;61.70;15.88;;;;;;;31.96;57.79;101134.38;5037227;28;65681;-32
2021/05/02 00:15:41;;;;;;;52.83;14.38;;;;;;;31.97;58.00;101136.03;5034777;28;69503;-32
2021/05/02 00:18:11;;;;;;;40.30;10.95;;;;;;;32.00;57.92;101137.47;5035908;28;64755;-32
2021/05/02 00:20:41;;;;;;;23.08;8.68;;;;;;;32.07;58.00;101134.69;5043492;28;69979;-32
2021/05/02 00:23:11;;;;;;;18.65;7.65;;;;;;;32.03;57.61;101135.13;5042047;28;65364;-32
2021/05/02 00:25:42;;;;;;;18.58;7.60;;;;;;;32.02;57.17;101128.06;5043713;28;70105;-33
2021/05/02 00:28:12;;;;;;;16.73;7.72;;;;;;;32.04;56.65;101131.41;5044311;28;66079;-32
2021/05/02 00:30:43;;;;;;;26.55;7.80;;;;;;;32.05;56.54;101130.31;5044535;28;70131;-32
2021/05/02 00:33:13;;;;;;;15.30;7.77;;;;;;;32.07;56.92;101135.56;5043424;28;65835;-31
2021/05/02 00:35:44;;;;;;;18.02;8.65;;;;;;;32.05;57.12;101127.63;5044093;28;70215;-32
2021/05/02 00:38:13;;;;;;;21.55;9.25;;;;;;;32.03;57.21;101128.88;5049625;28;66447;-32
2021/05/02 00:40:49;;;;;;;26.38;11.05;;;;;;;32.09;56.48;101129.88;5040897;28;69770;-31
2021/05/02 00:43:32;;;;;;;27.40;12.05;;;;;;;32.10;56.98;101129.66;5046533;28;66110;-32
2021/05/02 00:46:17;;;;;;;20.98;12.93;;;;;;;32.12;57.00;101140.28;5037771;28;69053;-32
2021/05/02 00:49:08;;;;;;;19.52;11.27;;;;;;;32.11;56.08;101131.31;5038728;28;65078;-32
2021/05/02 00:51:41;;;;;;;32.90;10.75;;;;;;;32.13;56.39;101145.50;5027663;28;69075;-31
2021/05/02 00:54:18;;;;;;;25.83;9.90;;;;;;;32.17;56.49;101135.03;5038038;28;66082;-32
2021/05/02 00:57:00;;;;;;;18.73;9.35;;;;;;;32.09;57.34;101138.03;5034052;28;70120;-33
2021/05/02 00:59:44;;;;;;;28.55;8.43;;;;;;;32.03;57.38;101139.75;5042706;28;66153;-33
2021/05/02 01:02:15;;;;;;;31.13;9.25;;;;;;;32.11;56.84;101142.19;5026161;28;70211;-32
2021/05/02 01:05:10;;;;;;;26.42;9.05;;;;;;;32.04;57.76;101136.81;5043920;28;65584;-31
2021/05/02 01:07:42;;;;;;;17.40;7.72;;;;;;;31.99;56.57;101119.53;5042426;28;70573;-31
2021/05/02 01:10:17;;;;;;;24.55;7.72;;;;;;;32.09;56.96;101138.03;5041252;28;65639;-31
2021/05/02 01:12:50;;;;;;;24.42;7.88;;;;;;;32.13;56.67;101137.38;5037155;28;69070;-31
2021/05/02 01:15:25;;;;;;;;;;;;;;;32.19;57.46;101143.78;5038900;28;66055;-31
2021/05/02 01:18:07;;;;;;;29.70;7.13;;;;;;;32.19;57.16;101144.59;5037442;28;68986;-32
2021/05/02 01:20:41;;;;;;;34.35;7.60;;;;;;;32.21;56.71;101137.09;5039169;28;65944;-32
2021/05/02 01:23:27;;;;;;;17.10;7.18;;;;;;;32.27;56.98;101140.78;5037177;28;69226;-32
2021/05/02 01:26:00;;;;;;;28.50;6.97;;;;;;;32.34;56.84;101151.56;5036583;28;66206;-32
2021/05/02 01:28:30;;;;;;;24.27;7.50;;;;;;;32.35;56.70;101151.34;5035222;28;69979;-32
2021/05/02 01:31:00;;;;;;;25.15;7.32;;;;;;;32.45;56.57;101165.22;5034392;28;64969;-31
2021/05/02 01:33:31;;;;;;;27.20;8.27;;;;;;;32.47;56.32;101163.16;5036280;28;70145;-32
2021/05/02 01:36:02;;;;;;;13.90;7.00;;;;;;;32.54;56.09;101154.97;5032940;28;66590;-31
2021/05/02 01:38:34;;;;;;;25.58;7.43;;;;;;;32.52;56.14;101150.81;5034339;28;70047;-32
2021/05/02 01:41:04;;;;;;;24.13;7.10;;;;;;;32.52;56.35;101161.66;5035529;28;66069;-31
2021/05/02 01:43:34;;;;;;;32.53;8.30;;;;;;;32.58;56.27;101149.91;5036790;28;70144;-31
2021/05/02 01:46:05;;;;;;;35.22;6.63;;;;;;;32.62;56.04;101143.78;5028672;28;65564;-31
2021/05/02 01:48:37;;;;;;;;;;;;;;;32.64;55.88;101146.28;5033181;28;70083;-31
2021/05/02 01:51:10;;;;;;;25.17;6.50;;;;;;;32.70;54.90;101145.38;5036552;28;66339;-31
2021/05/02 01:53:40;;;;;;;28.00;6.68;;;;;;;32.80;54.44;101151.09;5038786;28;69457;-31
2021/05/02 01:56:15;;;;;;;23.65;11.10;;;;;;;32.81;54.41;101157.38;5037321;28;65270;-32
2021/05/02 01:58:45;;;;;;;44.03;16.90;;;;;;;32.87;54.09;101151.84;5035873;28;69205;-31
2021/05/02 02:01:20;;;;;;;45.97;17.60;;;;;;;32.87;54.03;101151.84;5036759;28;66108;-31
2021/05/02 02:03:51;;;;;;;31.50;14.25;;;;;;;32.91;53.63;101152.22;5038653;28;70027;-32
2021/05/02 02:06:23;;;;;;;28.37;9.97;;;;;;;32.77;53.61;101126.28;5033864;28;66237;-31
2021/05/02 02:08:53;;;;;;;17.27;9.00;;;;;;;32.93;53.21;101156.38;5036576;28;69073;-32
2021/05/02 02:11:24;;;;;;;24.40;7.10;;;;;;;32.99;53.01;101153.78;5032508;28;65214;-32
2021/05/02 02:13:55;;;;;;;12.30;6.67;;;;;;;33.03;53.13;101155.03;5030487;28;69942;-32
2021/05/02 02:16:26;;;;;;;8.57;5.97;;;;;;;33.06;52.95;101152.69;5035824;28;65865;-32
2021/05/02 02:18:57;;;;;;;19.30;6.80;;;;;;;33.05;52.73;101148.31;5038506;28;69531;-31
2021/05/02 02:21:27;;;;;;;21.38;5.97;;;;;;;33.11;52.40;101152.84;5035629;28;65436;-32
2021/05/02 02:24:00;;;;;;;21.52;6.90;;;;;;;33.04;52.28;101127.66;5035548;28;69290;-31
2021/05/02 02:26:50;;;;;;;13.27;7.15;;;;;;;33.19;52.55;101148.97;5034599;28;65339;-32
2021/05/02 02:29:20;;;;;;;25.33;7.45;;;;;;;33.20;52.60;101128.88;5039276;28;70160;-32
2021/05/02 02:31:51;;;;;;;14.65;5.70;;;;;;;33.25;51.67;101147.22;5036321;28;66200;-32
2021/05/02 02:34:22;;;;;;;18.60;5.53;;;;;;;33.28;51.92;101133.16;5035544;28;69357;-31
2021/05/02 02:36:52;;;;;;;22.23;6.10;;;;;;;33.30;52.07;101142.75;5037020;28;65797;-31
2021/05/02 02:39:23;;;;;;;14.75;6.10;;;;;;;33.31;52.22;101144.41;5037426;28;69817;-31
2021/05/02 02:41:53;;;;;;;11.25;6.10;;;;;;;33.36;52.01;101136.38;5035552;28;65511;-32
2021/05/02 02:44:27;;;;;;;16.10;6.47;;;;;;;33.43;51.89;101135.47;5036378;28;69887;-32
2021/05/02 02:47:00;;;;;;;24.45;7.10;;;;;;;33.51;51.93;101143.28;5036011;28;65289;-32
2021/05/02 02:49:34;;;;;;;20.27;7.10;;;;;;;33.55;52.03;101136.38;5038714;28;69829;-31
2021/05/02 02:52:06;;;;;;;23.25;6.63;;;;;;;33.56;51.81;101132.56;5036283;28;66245;-32
2021/05/02 02:54:38;;;;;;;33.88;7.38;;;;;;;33.58;51.44;101130.47;5034239;28;70632;-32
2021/05/02 02:57:11;;;;;;;17.55;6.47;;;;;;;33.65;51.18;101120.28;5032288;28;66262;-31
2021/05/02 02:59:43;;;;;;;9.63;6.78;;;;;;;33.77;51.31;101123.88;5033604;28;70255;-32
2021/05/02 03:02:15;;;;;;;10.20;6.57;;;;;;;33.69;51.53;101110.59;5035122;28;65601;-33
2021/05/02 03:04:49;;;;;;;17.80;7.35;;;;;;;33.71;51.27;101111.22;5034215;28;69932;-32
2021/05/02 03:07:24;;;;;;;19.60;7.10;;;;;;;33.72;51.15;101110.13;5034387;28;65491;-32
2021/05/02 03:09:54;;;;;;;14.75;6.25;;;;;;;33.73;51.23;101105.53;5036413;28;70029;-33
2021/05/02 03:12:27;;;;;;;14.10;6.10;;;;;;;33.63;51.25;101073.47;5036379;28;65310;-32
2021/05/02 03:14:57;;;;;;;21.40;5.97;;;;;;;33.76;51.15;101092.25;5033295;28;69182;-33
2021/05/02 03:17:32;;;;;;;25.92;6.30;;;;;;;33.63;51.04;101062.59;5034665;28;66377;-31
2021/05/02 03:20:12;;;;;;;12.45;6.60;;;;;;;33.87;51.60;101084.34;5022918;28;69197;-33
2021/05/02 03:22:55;;;;;;;12.23;5.95;;;;;;;33.92;51.47;101077.13;5028620;28;65325;-31
2021/05/02 03:25:30;;;;;;;13.40;6.32;;;;;;;33.85;51.18;101053.81;5033902;28;70202;-32
2021/05/02 03:28:04;;;;;;;11.38;6.60;;;;;;;33.90;51.36;101054.78;5035644;28;66450;-35
2021/05/02 03:30:35;;;;;;;32.42;6.70;;;;;;;34.06;51.10;101066.88;5038362;28;69389;-33
2021/05/02 03:33:09;;;;;;;27.55;6.68;;;;;;;34.07;51.05;101062.25;5035969;28;66101;-32
2021/05/02 03:35:44;;;;;;;32.40;6.78;;;;;;;33.97;50.93;101035.63;5024582;28;70146;-32
2021/05/02 03:38:43;;;;;;;21.60;6.57;;;;;;;34.15;50.66;101054.53;5035280;28;66032;-33
2021/05/02 03:41:15;;;;;;;11.80;5.85;;;;;;;34.18;50.92;101047.81;5029411;28;69242;-32
2021/05/02 03:43:49;;;;;;;25.38;7.10;;;;;;;34.18;51.11;101036.91;5031797;28;66524;-32
2021/05/02 03:46:26;;;;;;;29.63;6.57;;;;;;;34.18;50.82;101029.56;5036299;28;69978;-32
2021/05/02 03:49:04;;;;;;;31.10;6.95;;;;;;;34.19;50.64;101028.53;5026766;28;65988;-33
2021/05/02 03:51:38;;;;;;;18.40;6.20;;;;;;;34.24;50.89;101012.28;5033501;28;71190;-31
2021/05/02 03:54:09;;;;;;;31.55;7.15;;;;;;;34.09;49.42;101002.97;5032402;28;65540;-31
2021/05/02 03:56:40;;;;;;;29.20;6.72;;;;;;;33.87;49.53;101002.72;5036173;28;70222;-31
2021/05/02 03:59:19;;;;;;;18.63;6.13;;;;;;;33.65;48.53;100997.06;5037143;28;66151;-31
2021/05/02 04:01:58;;;;;;;17.75;5.32;;;;;;;33.46;48.36;100990.84;5028396;28;69776;-31
2021/05/02 04:04:36;;;;;;;10.35;5.53;;;;;;;33.09;46.86;100959.25;5034192;28;66292;-33
2021/05/02 04:07:11;;;;;;;12.85;5.88;;;;;;;33.11;46.86;100978.06;5033819;28;69026;-31
2021/05/02 04:09:46;;;;;;;10.75;4.95;;;;;;;32.96;46.51;100969.47;5037558;28;66017;-32
2021/05/02 04:12:17;;;;;;;5.45;4.82;;;;;;;32.85;46.02;100958.34;5036737;28;69553;-32
2021/05/02 04:14:49;;;;;;;10.25;4.75;;;;;;;32.77;45.57;100950.53;5035982;28;66090;-32
2021/05/02 04:17:21;;;;;;;12.85;5.10;;;;;;;32.77;45.80;100957.88;5034608;28;70619;-32
2021/05/02 04:19:53;;;;;;;6.18;4.57;;;;;;;32.69;44.87;100948.16;5035348;28;66919;-32
2021/05/02 04:22:30;;;;;;;9.05;4.32;;;;;;;32.62;44.55;100944.69;5035908;28;69710;-32
2021/05/02 04:25:03;;;;;;;10.57;4.13;;;;;;;32.58;44.42;100940.78;5035022;28;65689;-31
2021/05/02 04:27:33;;;;;;;5.78;4.70;;;;;;;32.58;44.28;100933.47;5031888;28;70756;-33
2021/05/02 04:30:04;;;;;;;6.78;4.38;;;;;;;32.57;44.21;100928.25;5034342;28;66235;-32
2021/05/02 04:32:34;;;;;;;9.95;3.95;;;;;;;32.52;43.55;100930.84;5036868;28;69993;-32
2021/05/02 04:35:06;;;;;;;6.85;3.92;;;;;;;32.47;43.42;100918.78;5036190;28;66848;-32
2021/05/02 04:37:38;;;;;;;5.43;3.60;;;;;;;32.44;43.31;100911.06;5035857;28;70577;-32
2021/05/02 04:40:10;;;;;;;4.10;3.80;;;;;;;32.42;42.74;100915.88;5020848;28;65979;-32
2021/05/02 04:42:50;;;;;;;4.65;3.72;;;;;;;32.39;42.50;100902.78;5036727;28;69970;-32
2021/05/02 04:45:21;;;;;;;8.88;3.45;;;;;;;32.36;42.46;100900.53;5032073;28;65423;-31
2021/05/02 04:47:53;;;;;;;7.53;3.53;;;;;;;32.38;41.86;100898.41;5027477;28;70128;-30
2021/05/02 04:50:24;;;;;;;7.00;3.50;;;;;;;32.35;41.79;100893.47;5032723;28;66271;-32
2021/05/02 04:52:55;;;;;;;13.40;3.53;;;;;;;32.27;42.15;100885.63;5033841;28;70156;-31
2021/05/02 04:55:25;;;;;;;3.67;3.13;;;;;;;32.28;42.14;100876.41;5034647;28;65948;-32
2021/05/02 04:57:58;;;;;;;6.78;3.80;;;;;;;32.30;42.10;100879.75;5034553;28;69312;-32
2021/05/02 05:00:29;;;;;;;12.38;3.47;;;;;;;32.33;42.72;100884.69;5035863;28;66167;-32
2021/05/02 05:03:02;;;;;;;6.68;3.40;;;;;;;32.33;42.89;100876.56;5034381;28;69696;-32
2021/05/02 05:05:32;;;;;;;9.48;4.20;;;;;;;32.31;43.30;100875.13;5034790;28;66259;-32
2021/05/02 05:08:03;;;;;;;8.77;3.30;;;;;;;32.32;42.85;100861.34;5033603;28;68983;-33
2021/05/02 05:10:34;;;;;;;11.68;3.00;;;;;;;32.26;42.76;100854.09;5035445;28;65582;-35
2021/05/02 05:13:04;;;;;;;5.15;3.08;;;;;;;32.29;42.33;100853.66;5033082;28;70040;-33
2021/05/02 05:15:39;;;;;;;7.72;3.20;;;;;;;32.30;42.09;100847.16;5031180;28;66308;-33
2021/05/02 05:18:10;;;;;;;9.57;3.50;;;;;;;32.33;42.39;100843.16;5034168;28;70668;-32
2021/05/02 05:20:46;;;;;;;10.33;2.90;;;;;;;32.31;42.19;100843.38;5032271;28;65359;-32
2021/05/02 05:23:16;;;;;;;6.68;2.75;;;;;;;32.34;41.97;100832.06;5033058;28;70329;-32
2021/05/02 05:25:49;;;;;;;4.50;2.65;;;;;;;32.32;41.62;100822.50;5032863;28;65778;-31
2021/05/02 05:28:19;;;;;;;2.90;2.70;;;;;;;32.32;40.88;100817.06;5038469;28;69411;-32
2021/05/02 05:30:52;;;;;;;3.10;2.75;;;;;;;32.29;41.43;100810.22;5046504;28;65320;-37
2021/05/02 05:33:30;;;;;;;3.90;3.03;;;;;;;32.22;40.84;100795.91;5033499;28;69226;-32
2021/05/02 05:36:00;;;;;;;3.65;3.00;;;;;;;32.35;40.41;100801.16;5036610;28;66186;-32
2021/05/02 05:38:30;;;;;;;12.35;2.78;;;;;;;32.32;40.43;100796.19;5039661;28;69901;-33
2021/05/02 05:41:01;;;;;;;5.90;2.72;;;;;;;32.37;40.82;100784.63;5039712;28;66193;-33
2021/05/02 05:43:31;;;;;;;3.45;2.60;;;;;;;32.37;40.43;100771.88;5026088;28;68975;-32
2021/05/02 05:46:01;;;;;;;7.80;2.63;;;;;;;32.39;40.38;100780.63;5030048;28;65181;-33
2021/05/02 05:48:32;;;;;;;2.70;2.40;;;;;;;32.42;40.23;100774.72;5035900;28;69372;-32
2021/05/02 05:51:03;;;;;;;3.95;2.30;;;;;;;32.47;39.71;100760.47;5040974;28;65107;-32
2021/05/02 05:53:34;;;;;;;2.92;2.72;;;;;;;32.50;39.80;100743.72;5037905;28;69854;-33
2021/05/02 05:56:11;;;;;;;2.65;2.25;;;;;;;32.47;39.39;100728.72;5028589;28;66004;-32
2021/05/02 05:58:42;;;;;;;5.50;2.40;;;;;;;32.54;39.59;100727.78;5040815;28;69787;-31
2021/05/02 06:01:12;;;;;;;8.73;2.42;;;;;;;32.56;39.47;100731.09;5040276;28;65987;-32
2021/05/02 06:03:42;;;;;;;2.97;2.45;;;;;;;32.63;39.00;100723.66;5017903;28;70266;-31
2021/05/02 06:06:13;;;;;;;2.70;2.28;;;;;;;32.63;38.68;100715.53;5020641;28;66112;-32
2021/05/02 06:08:43;;;;;;;3.42;2.22;;;;;;;32.64;39.52;100711.72;5037325;28;69388;-31
2021/05/02 06:11:13;;;;;;;2.15;1.98;;;;;;;32.65;38.69;100707.94;5040564;28;66127;-31
2021/05/02 06:13:44;;;;;;;6.38;2.20;;;;;;;32.67;38.68;100703.09;5023742;28;70431;-32
2021/05/02 06:16:14;;;;;;;2.50;2.30;;;;;;;32.70;38.59;100705.34;5029248;28;65425;-32
2021/05/02 06:18:58;;;;;;;2.78;2.15;;;;;;;32.70;38.55;100683.63;5040653;28;68381;-32
2021/05/02 06:21:28;;;;;;;2.50;2.30;;;;;;;32.71;38.70;100685.28;5039754;28;65899;-32
2021/05/02 06:23:58;;;;;;;5.10;2.40;;;;;;;32.73;38.65;100677.72;5024044;28;69428;-31
2021/05/02 06:26:28;;;;;;;6.80;2.60;;;;;;;32.71;38.77;100669.00;5039812;28;66097;-31
2021/05/02 06:28:59;;;;;;;6.32;2.58;;;;;;;32.70;38.47;100672.75;5039153;28;69313;-32
2021/05/02 06:31:29;;;;;;;2.45;2.25;;;;;;;32.74;38.53;100673.94;5039617;28;66013;-32
2021/05/02 06:34:00;;;;;;;2.72;2.25;;;;;;;32.78;38.51;100672.38;5037758;28;69539;-31
2021/05/02 06:36:30;;;;;;;4.10;1.95;;;;;;;32.78;38.32;100647.13;5027380;28;66377;-32
2021/05/02 06:39:00;;;;;;;3.75;2.38;;;;;;;32.81;38.20;100652.06;5036113;28;69925;-32
2021/05/02 06:41:31;;;;;;;4.90;2.15;;;;;;;32.80;38.72;100656.69;5038778;28;65962;-32
2021/05/02 06:44:01;;;;;;;2.83;2.60;;;;;;;32.79;38.39;100637.91;5030471;28;69109;-31
2021/05/02 06:46:32;;;;;;;8.05;2.55;;;;;;;32.82;38.46;100646.41;5035560;28;66391;-32
2021/05/02 06:49:08;;;;;;;7.10;2.67;;;;;;;32.84;38.39;100640.72;5038574;28;70016;-31
2021/05/02 06:51:38;;;;;;;6.10;2.95;;;;;;;32.81;38.35;100636.59;5038018;28;65977;-32
2021/05/02 06:54:08;;;;;;;3.47;2.45;;;;;;;32.83;38.09;100653.50;5037847;28;70480;-31
2021/05/02 06:56:39;;;;;;;6.65;2.63;;;;;;;32.78;37.92;100642.50;5037388;28;65270;-32
2021/05/02 06:59:12;;;;;;;9.35;2.80;;;;;;;32.80;37.85;100632.25;5037003;28;69951;-32
2021/05/02 07:01:41;;;;;;;8.60;2.25;;;;;;;32.83;37.69;100633.66;5034282;28;65936;-32
2021/05/02 07:04:12;;;;;;;3.00;2.58;;;;;;;32.88;37.27;100629.16;5027369;28;70280;-32
2021/05/02 07:06:42;;;;;;;3.22;2.17;;;;;;;32.79;37.50;100610.75;5037465;28;66071;-31
2021/05/02 07:09:13;;;;;;;2.42;2.08;;;;;;;32.88;37.07;100623.72;5037814;28;69815;-31
2021/05/02 07:11:43;;;;;;;2.53;2.35;;;;;;;32.96;37.86;100624.41;5033836;28;66038;-31
2021/05/02 07:14:14;;;;;;;2.83;2.40;;;;;;;32.95;37.36;100629.00;5029337;28;68663;-31
2021/05/02 07:16:44;;;;;;;2.35;2.15;;;;;;;33.00;37.87;100620.19;5037473;28;66019;-31
2021/05/02 07:19:15;;;;;;;5.18;2.25;;;;;;;32.99;38.30;100623.91;5035538;28;72189;-31
2021/05/02 07:21:45;;;;;;;3.85;2.70;;;;;;;33.02;37.61;100620.78;5036989;28;65762;-32
2021/05/02 07:24:16;;;;;;;9.57;2.17;;;;;;;32.97;37.99;100618.72;5037693;28;69927;-32
2021/05/02 07:26:47;;;;;;;5.25;2.42;;;;;;;32.98;38.15;100619.56;5030784;28;66613;-31
2021/05/02 07:29:17;;;;;;;9.00;2.63;;;;;;;32.97;38.43;100605.16;5035363;28;69350;-31
2021/05/02 07:31:47;;;;;;;5.07;2.83;;;;;;;32.99;38.32;100604.88;5035843;28;65563;-32
2021/05/02 07:34:17;;;;;;;5.28;2.65;;;;;;;33.04;38.46;100602.31;5037670;28;70147;-31
2021/05/02 07:36:47;;;;;;;13.80;3.13;;;;;;;33.02;38.44;100599.03;5034281;28;65429;-32
2021/05/02 07:39:18;;;;;;;5.63;2.75;;;;;;;33.03;38.65;100595.22;5035313;28;69776;-33
2021/05/02 07:41:49;;;;;;;4.30;2.45;;;;;;;33.05;39.00;100593.09;5001568;28;64874;-32
2021/05/02 07:44:19;;;;;;;10.93;2.90;;;;;;;33.15;40.63;100593.28;5035678;28;69995;-32
2021/05/02 07:46:50;;;;;;;4.57;3.33;;;;;;;33.36;43.47;100586.34;5031795;28;64999;-31
2021/05/02 07:49:20;;;;;;;7.25;3.72;;;;;;;33.61;44.64;100591.44;5034361;28;68896;-31
2021/05/02 07:51:50;;;;;;;14.77;4.28;;;;;;;33.80;45.54;100590.13;5025620;28;65385;-31
2021/05/02 07:54:20;;;;;;;9.88;4.20;;;;;;;34.00;45.82;100581.47;5036715;28;69207;-31
2021/05/02 07:56:52;;;;;;;6.18;4.13;;;;;;;34.17;46.08;100581.47;5038517;28;66056;-33
2021/05/02 07:59:22;;;;;;;7.43;4.07;;;;;;;34.23;47.15;100588.63;5037634;28;69532;-32
2021/05/02 08:01:52;;;;;;;8.32;4.20;;;;;;;34.38;47.30;100587.19;5038298;28;66074;-32
2021/05/02 08:04:22;;;;;;;19.50;4.10;;;;;;;34.50;47.64;100577.03;5037837;28;68853;-31
2021/05/02 08:06:52;;;;;;;9.23;4.80;;;;;;;34.63;47.75;100582.13;5032401;28;66925;-31
2021/05/02 08:09:23;;;;;;;16.75;5.07;;;;;;;34.68;47.85;100573.19;5038290;28;69838;-32
2021/05/02 08:11:53;;;;;;;9.50;4.40;;;;;;;34.79;48.21;100571.41;5037534;28;66682;-31
2021/05/02 08:14:23;;;;;;;11.52;4.55;;;;;;;34.86;48.34;100580.22;5036582;28;69221;-32
2021/05/02 08:16:55;;;;;;;15.43;4.18;;;;;;;34.83;48.53;100558.94;5036661;28;65883;-32
2021/05/02 08:19:26;;;;;;;22.17;4.90;;;;;;;34.97;48.71;100575.72;5037778;28;68703;-32
2021/05/02 08:21:56;;;;;;;13.50;4.88;;;;;;;35.05;48.52;100572.50;5038274;28;65448;-32
2021/05/02 08:24:26;;;;;;;25.02;4.70;;;;;;;35.10;48.75;100567.16;5036733;28;68947;-32
2021/05/02 08:26:58;;;;;;;11.63;4.57;;;;;;;35.20;48.87;100571.91;5033051;28;65866;-33
2021/05/02 08:29:28;;;;;;;17.63;4.85;;;;;;;35.22;49.30;100573.28;5034454;28;70236;-33
2021/05/02 08:31:58;;;;;;;17.98;4.05;;;;;;;35.28;49.39;100571.44;5035346;28;65271;-32
2021/05/02 08:34:28;;;;;;;11.43;4.43;;;;;;;35.31;48.87;100566.28;5035989;28;70417;-32
2021/05/02 08:37:00;;;;;;;13.30;4.20;;;;;;;35.39;49.09;100567.72;5034626;28;66324;-33
2021/05/02 08:39:30;;;;;;;9.18;4.35;;;;;;;35.50;48.78;100564.00;5034369;28;69658;-34
2021/05/02 08:42:00;;;;;;;12.90;4.40;;;;;;;35.45;49.36;100561.22;5035064;28;65844;-32
2021/05/02 08:44:31;;;;;;;14.40;4.55;;;;;;;35.47;49.36;100569.97;5036587;28;69621;-32
2021/05/02 08:47:02;;;;;;;10.87;4.73;;;;;;;35.48;49.29;100560.69;5033594;28;66231;-33
2021/05/02 08:49:32;;;;;;;11.15;4.38;;;;;;;35.47;49.47;100553.59;5034069;28;69914;-32
2021/05/02 08:52:02;;;;;;;15.52;4.00;;;;;;;35.52;49.17;100550.94;5032029;28;65363;-33
2021/05/02 08:54:33;;;;;;;20.73;4.30;;;;;;;35.54;49.50;100556.09;5032272;28;68467;-32
2021/05/02 08:57:06;;;;;;;20.60;4.47;;;;;;;35.54;49.30;100548.75;5030663;28;66672;-32
2021/05/02 08:59:36;;;;;;;17.10;4.55;;;;;;;35.53;49.78;100544.38;5032239;28;70014;-33
2021/05/02 09:02:06;;;;;;;19.13;4.80;;;;;;;35.55;49.65;100549.56;5031909;28;66122;-33
2021/05/02 09:04:50;;;;;;;26.48;5.30;;;;;;;35.62;50.37;100554.84;5034297;28;69208;-34
2021/05/02 09:07:21;;;;;;;20.45;5.60;;;;;;;35.69;49.80;100544.50;5038738;28;65782;-33
2021/05/02 09:09:51;;;;;;;22.02;6.20;;;;;;;35.70;49.54;100559.81;5039023;28;69873;-33
2021/05/02 09:12:24;;;;;;;15.20;5.32;;;;;;;35.71;49.92;100564.19;5035909;28;65947;-33
2021/05/02 09:14:54;;;;;;;15.82;4.82;;;;;;;35.71;49.95;100558.72;5036235;28;69961;-35
2021/05/02 09:17:31;;;;;;;21.73;4.70;;;;;;;35.68;49.78;100564.72;5028699;28;66828;-32
2021/05/02 09:20:02;;;;;;;18.60;5.63;;;;;;;35.58;50.48;100563.56;5039584;28;69824;-32
2021/05/02 09:22:34;;;;;;;14.65;5.00;;;;;;;35.55;50.75;100577.69;5038164;28;65274;-33
2021/05/02 09:25:12;;;;;;;15.88;4.32;;;;;;;35.51;51.28;100559.34;5041539;28;69856;-32
2021/05/02 09:27:49;;;;;;;27.35;4.90;;;;;;;35.58;50.79;100555.38;5038873;28;66545;-33
2021/05/02 09:30:21;;;;;;;17.50;5.32;;;;;;;35.65;50.53;100555.13;5040357;28;69224;-32
2021/05/02 09:33:01;;;;;;;21.52;5.20;;;;;;;35.67;50.61;100561.16;5041199;28;65075;-33
2021/05/02 09:35:33;;;;;;;17.73;4.82;;;;;;;35.65;50.11;100552.41;5039038;28;69352;-31
2021/05/02 09:38:12;;;;;;;19.42;4.97;;;;;;;35.47;50.32;100542.69;5024458;28;65465;-32
2021/05/02 09:40:53;;;;;;;7.32;4.65;;;;;;;35.51;50.37;100553.91;5036461;28;69963;-32
2021/05/02 09:43:47;;;;;;;14.27;4.75;;;;;;;35.50;50.70;100564.00;5040770;28;65916;-32
2021/05/02 09:46:32;;;;;;;28.40;4.93;;;;;;;35.31;50.59;100549.09;5041694;28;70149;-32
2021/05/02 09:49:15;;;;;;;49.03;5.95;;;;;;;35.34;50.95;100559.47;5055152;28;65168;-33
2021/05/02 09:51:54;;;;;;;15.43;4.82;;;;;;;35.36;50.65;100573.69;5023487;28;70308;-32
2021/05/02 09:54:28;;;;;;;27.35;5.07;;;;;;;35.33;50.10;100566.03;5048308;28;65937;-33
2021/05/02 09:56:59;;;;;;;25.20;5.13;;;;;;;35.36;49.91;100590.06;5035645;28;70024;-33
2021/05/02 09:59:33;;;;;;;21.08;5.53;;;;;;;35.30;49.75;100585.59;5035618;28;66326;-31
2021/05/02 10:02:12;;;;;;;15.18;5.45;;;;;;;35.30;49.66;100597.38;5038022;28;70027;-31
2021/05/02 10:05:01;;;;;;;19.88;5.18;;;;;;;35.28;50.00;100602.25;5035354;28;65867;-33
2021/05/02 10:07:34;;;;;;;46.30;5.68;;;;;;;35.27;49.98;100614.25;5052196;28;70337;-32
2021/05/02 10:10:05;;;;;;;37.03;5.72;;;;;;;35.22;49.87;100607.91;5043514;28;66263;-33
2021/05/02 10:12:40;;;;;;;20.83;5.38;;;;;;;35.25;49.87;100610.13;5035585;28;70089;-31
2021/05/02 10:15:10;;;;;;;19.98;4.55;;;;;;;35.24;50.11;100613.91;5046635;28;65578;-33
2021/05/02 10:17:41;;;;;;;13.13;4.88;;;;;;;35.24;50.11;100616.63;5037739;28;69441;-31
2021/05/02 10:20:14;;;;;;;7.68;4.43;;;;;;;35.19;50.13;100616.56;5041301;28;66293;-31
2021/05/02 10:22:44;;;;;;;17.63;4.60;;;;;;;35.14;50.46;100620.91;5043100;28;69851;-31
2021/05/02 10:25:15;;;;;;;20.70;6.13;;;;;;;35.14;50.87;100626.34;5046203;28;64704;-31
2021/05/02 10:27:49;;;;;;;33.95;5.70;;;;;;;34.96;50.66;100621.19;5040548;28;70175;-31
2021/05/02 10:30:37;;;;;;;24.00;5.55;;;;;;;34.87;50.71;100630.91;5043657;28;66803;-31
2021/05/02 10:33:10;;;;;;;21.63;5.15;;;;;;;34.96;50.23;100645.72;5043759;28;69697;-32
2021/05/02 10:35:59;;;;;;;41.10;6.90;;;;;;;34.86;51.29;100645.63;5043777;28;66961;-32
2021/05/02 10:38:52;;;;;;;20.42;5.57;;;;;;;34.77;51.36;100642.53;5041911;28;69351;-35
2021/05/02 10:41:29;;;;;;;15.15;5.50;;;;;;;34.87;51.43;100663.63;5041765;28;65928;-31
2021/05/02 10:44:07;;;;;;;29.02;6.00;;;;;;;34.82;52.05;100667.09;5041867;28;69919;-32
2021/05/02 10:46:54;;;;;;;20.55;5.53;;;;;;;34.68;50.97;100658.44;5040279;28;65977;-32
2021/05/02 10:49:24;;;;;;;28.05;4.93;;;;;;;34.79;50.98;100666.78;5052864;28;70127;-31
2021/05/02 10:52:16;;;;;;;24.50;5.38;;;;;;;34.63;51.23;100658.41;5050973;28;65991;-31
2021/05/02 10:54:47;;;;;;;38.53;5.50;;;;;;;34.73;51.16;100675.97;5038384;28;70225;-31
2021/05/02 10:57:34;;;;;;;25.73;5.20;;;;;;;34.61;50.68;100671.44;5047118;28;65094;-32
2021/05/02 11:00:07;;;;;;;24.15;5.25;;;;;;;34.40;50.90;100634.06;5045600;28;70246;-31
2021/05/02 11:02:41;;;;;;;31.95;5.03;;;;;;;34.54;50.62;100664.50;5044392;28;65487;-31
2021/05/02 11:05:14;;;;;;;20.20;5.03;;;;;;;34.54;50.93;100670.75;5044638;28;69951;-32
2021/05/02 11:07:45;;;;;;;;;;;;;;;34.50;51.06;100680.53;5050128;28;66117;-31
2021/05/02 11:10:19;;;;;;;21.42;5.65;;;;;;;34.43;51.46;100663.50;5046156;28;70056;-31
2021/05/02 11:12:49;;;;;;;33.55;5.78;;;;;;;34.49;51.07;100678.84;5038525;28;65440;-31
2021/05/02 11:15:31;;;;;;;20.27;4.90;;;;;;;34.51;51.93;100684.88;5042104;28;69862;-31
2021/05/02 11:18:01;;;;;;;11.43;5.40;;;;;;;34.38;51.52;100682.50;5033175;28;65901;-32
2021/05/02 11:20:51;;;;;;;24.58;5.68;;;;;;;34.07;51.86;100679.28;5037011;28;69843;-32
2021/05/02 11:23:54;;;;;;;15.02;5.53;;;;;;;33.89;51.88;100684.94;5042106;28;66239;-37
2021/05/02 11:27:10;;;;;;;27.02;5.60;;;;;;;33.81;51.66;100688.91;5028392;28;69225;-31
2021/05/02 11:30:00;;;;;;;39.15;6.10;;;;;;;33.75;51.54;100698.84;5043735;28;65439;-31
2021/05/02 11:32:30;;;;;;;35.08;6.25;;;;;;;33.75;50.67;100709.75;5039349;28;69960;-31
2021/05/02 11:35:05;;;;;;;32.77;6.27;;;;;;;33.66;50.06;100691.34;5037366;28;66607;-31
2021/05/02 11:38:05;;;;;;;28.15;5.57;;;;;;;33.56;49.71;100681.91;5038908;28;70069;-33
2021/05/02 11:40:37;;;;;;;30.80;5.93;;;;;;;33.37;50.02;100672.25;5036570;28;64767;-32
2021/05/02 11:43:24;;;;;;;31.05;5.90;;;;;;;33.40;49.53;100687.28;5042961;28;69562;-32
2021/05/02 11:45:59;;;;;;;16.83;5.38;;;;;;;33.23;49.31;100689.94;5037818;28;65330;-32
2021/05/02 11:48:32;;;;;;;16.08;5.28;;;;;;;33.18;48.97;100701.50;5039850;28;70275;-33